Time;durP1;ratioP1;P1;durP2;ratioP2;P2;SDS_P1;SDS_P2;PMS_P1;PMS_P2;Temp;Humidity;BMP_temperature;BMP_pressure;BME280_temperature;BME280_humidity;BME280_pressure;Samples;Min_cycle;Max_cycle;Signal;HPM_P1;HPM_P2
2023/02/12 00:02:09;;;;;;;84.35;53.50;;;1.30;99.90;;;;;;5032553;28;20421;-88
2023/02/12 00:04:35;;;;;;;86.55;55.10;;;1.40;99.90;;;;;;5032612;28;20108;-89
2023/02/12 00:07:00;;;;;;;87.10;55.97;;;1.50;99.90;;;;;;5032404;28;20026;-88
2023/02/12 00:09:26;;;;;;;88.72;55.17;;;2.10;99.90;;;;;;5014301;28;20061;-89
2023/02/12 00:11:52;;;;;;;86.78;53.60;;;1.60;99.90;;;;;;5032373;28;20033;-89
2023/02/12 00:14:17;;;;;;;84.78;53.05;;;2.00;99.90;;;;;;5014590;28;20426;-89
2023/02/12 00:16:43;;;;;;;88.25;54.63;;;1.50;99.90;;;;;;5014603;28;20034;-88
2023/02/12 00:19:09;;;;;;;83.93;51.65;;;2.20;99.90;;;;;;5032232;28;20034;-89
2023/02/12 00:21:35;;;;;;;77.95;49.28;;;1.90;99.90;;;;;;5032298;28;20040;-89
2023/02/12 00:24:01;;;;;;;73.55;47.85;;;1.10;99.90;;;;;;5032062;28;20030;-89
2023/02/12 00:26:27;;;;;;;81.03;48.50;;;0.70;99.90;;;;;;5033069;28;20493;-88
2023/02/12 00:28:54;;;;;;;79.95;49.88;;;1.40;99.90;;;;;;5035850;28;20030;-89
2023/02/12 00:31:23;;;;;;;79.55;51.20;;;0.90;99.90;;;;;;5018357;28;20056;-88
2023/02/12 00:33:49;;;;;;;80.78;51.10;;;0.90;99.90;;;;;;5035988;28;20441;-88
2023/02/12 00:36:18;;;;;;;79.07;52.30;;;1.00;99.90;;;;;;5035882;28;20030;-88
2023/02/12 00:38:44;;;;;;;88.95;53.28;;;1.00;99.90;;;;;;5035383;28;20040;-89
2023/02/12 00:41:11;;;;;;;81.97;52.00;;;0.90;99.90;;;;;;5034659;28;20079;-89
2023/02/12 00:43:37;;;;;;;90.53;55.15;;;1.40;99.90;;;;;;5035778;28;20017;-89
2023/02/12 00:46:04;;;;;;;83.22;53.25;;;1.20;99.90;;;;;;5035835;28;20474;-89
2023/02/12 00:48:30;;;;;;;88.95;55.90;;;1.20;99.90;;;;;;5035773;28;20025;-89
2023/02/12 00:50:55;;;;;;;88.75;54.03;;;1.10;99.90;;;;;;5035700;28;20036;-89
2023/02/12 00:53:21;;;;;;;82.90;52.75;;;1.50;99.90;;;;;;5033976;28;20402;-88
2023/02/12 00:55:47;;;;;;;91.30;54.95;;;1.20;99.90;;;;;;5019659;28;20470;-89
2023/02/12 00:58:12;;;;;;;83.57;52.85;;;1.80;99.90;;;;;;5015502;28;20042;-89
2023/02/12 01:00:38;;;;;;;85.63;54.20;;;1.40;99.90;;;;;;5015779;28;20105;-88
2023/02/12 01:03:04;;;;;;;90.32;55.78;;;1.30;99.90;;;;;;5016001;28;20113;-89
2023/02/12 01:05:30;;;;;;;86.50;54.83;;;1.90;99.90;;;;;;5015685;28;20031;-89
2023/02/12 01:07:56;;;;;;;83.13;54.05;;;1.40;99.90;;;;;;5015317;28;20030;-88
2023/02/12 01:10:22;;;;;;;86.50;54.47;;;1.30;99.90;;;;;;5014317;28;20445;-88
2023/02/12 01:12:48;;;;;;;86.68;54.92;;;1.80;99.90;;;;;;5014119;28;20029;-88
2023/02/12 01:15:15;;;;;;;89.38;55.22;;;1.90;99.90;;;;;;5015273;28;20026;-89
2023/02/12 01:17:41;;;;;;;86.65;54.92;;;1.50;99.90;;;;;;5015133;28;20037;-89
2023/02/12 01:20:10;;;;;;;89.15;56.22;;;2.10;99.90;;;;;;5014027;28;20121;-89
2023/02/12 01:22:37;;;;;;;89.35;57.38;;;1.70;99.90;;;;;;5013693;28;20026;-89
2023/02/12 01:25:04;;;;;;;93.47;56.83;;;1.80;99.90;;;;;;5015179;28;20371;-88
2023/02/12 01:27:30;;;;;;;83.20;52.17;;;1.40;99.90;;;;;;5015041;28;20030;-89
2023/02/12 01:29:56;;;;;;;87.75;55.17;;;1.30;99.90;;;;;;5013767;28;20048;-88
2023/02/12 01:32:22;;;;;;;81.80;52.45;;;1.50;99.90;;;;;;5013366;28;20514;-89
2023/02/12 01:34:48;;;;;;;88.70;53.70;;;1.10;99.90;;;;;;5014990;28;20033;-89
2023/02/12 01:37:14;;;;;;;80.13;50.75;;;1.30;99.90;;;;;;5014132;28;20033;-89
2023/02/12 01:39:39;;;;;;;80.63;50.90;;;1.00;99.90;;;;;;5015094;28;20042;-89
2023/02/12 01:42:05;;;;;;;82.60;51.80;;;1.30;99.90;;;;;;5013588;28;20038;-88
2023/02/12 01:45:04;;;;;;;81.10;52.10;;;1.20;99.90;;;;;;5014834;28;20368;-88
2023/02/12 01:47:29;;;;;;;78.13;50.38;;;0.50;99.90;;;;;;5014676;28;20026;-88
2023/02/12 01:49:55;;;;;;;79.38;50.83;;;0.60;99.90;;;;;;5013524;28;20487;-88
2023/02/12 01:52:27;;;;;;;84.28;53.63;;;0.60;99.90;;;;;;5013228;28;20084;-88
2023/02/12 01:54:56;;;;;;;88.70;52.38;;;0.70;99.90;;;;;;5013356;28;20112;-89
2023/02/12 01:57:23;;;;;;;78.20;49.05;;;0.60;99.90;;;;;;5014631;28;20032;-88
2023/02/12 01:59:52;;;;;;;79.40;49.22;;;0.50;99.90;;;;;;5014762;28;20044;-89
2023/02/12 02:02:18;;;;;;;80.55;49.97;;;0.40;99.90;;;;;;5014671;28;20034;-89
2023/02/12 02:04:50;;;;;;;82.18;50.95;;;0.40;99.90;;;;;;5014545;28;20022;-88
2023/02/12 02:07:16;;;;;;;85.63;53.65;;;0.30;99.90;;;;;;5014279;28;20053;-89
2023/02/12 02:09:42;;;;;;;84.28;52.08;;;0.50;99.90;;;;;;5014571;28;20482;-89
2023/02/12 02:14:56;;;;;;;83.18;50.97;;;0.70;99.90;;;;;;5014922;28;20076;-89
2023/02/12 02:17:37;;;;;;;82.75;51.25;;;0.50;99.90;;;;;;5014417;28;20045;-88
2023/02/12 02:20:15;;;;;;;84.13;52.53;;;0.70;99.90;;;;;;5014048;28;20038;-88
2023/02/12 02:23:14;;;;;;;85.13;52.35;;;0.70;99.90;;;;;;5014239;28;20032;-89
2023/02/12 02:26:09;;;;;;;84.50;50.92;;;0.70;99.90;;;;;;5014315;28;20021;-89
2023/02/12 02:28:57;;;;;;;86.63;52.08;;;0.60;99.90;;;;;;5013991;28;20030;-89
2023/02/12 02:31:40;;;;;;;84.07;52.92;;;0.60;99.90;;;;;;5026227;28;20052;-88
2023/02/12 02:34:08;;;;;;;84.78;53.55;;;0.70;99.90;;;;;;5053741;28;20028;-88
2023/02/12 02:36:57;;;;;;;85.55;52.63;;;0.60;99.90;;;;;;5053407;28;20488;-89
2023/02/12 02:39:34;;;;;;;89.32;53.00;;;0.40;99.90;;;;;;5035671;28;20037;-88
2023/02/12 02:42:18;;;;;;;82.15;51.22;;;0.90;99.90;;;;;;5035631;28;20497;-88
2023/02/12 02:45:08;;;;;;;81.90;50.95;;;0.30;99.90;;;;;;5035753;28;20029;-88
2023/02/12 02:47:57;;;;;;;84.25;52.00;;;0.30;99.90;;;;;;5035396;28;20025;-89
2023/02/12 02:50:26;;;;;;;87.18;52.33;;;0.10;99.90;;;;;;5052441;28;20036;-88
2023/02/12 02:53:07;;;;;;;85.35;53.38;;;0.20;99.90;;;;;;5053196;28;20074;-89
2023/02/12 02:55:43;;;;;;;88.65;54.22;;;0.40;99.90;;;;;;5022540;28;20040;-88
2023/02/12 02:58:13;;;;;;;87.15;51.92;;;0.40;99.90;;;;;;5033133;28;20067;-89
2023/02/12 03:00:53;;;;;;;84.00;52.55;;;0.30;99.90;;;;;;5033262;28;20017;-88
2023/02/12 03:03:48;;;;;;;88.53;54.00;;;1.00;99.90;;;;;;5015277;28;20026;-88
2023/02/12 03:06:43;;;;;;;92.25;54.20;;;0.70;99.90;;;;;;5016240;28;20124;-89
2023/02/12 03:09:20;;;;;;;82.13;52.85;;;0.50;99.90;;;;;;5033180;28;20459;-89
2023/02/12 03:11:46;;;;;;;83.63;51.60;;;0.50;99.90;;;;;;5033122;28;20025;-88
2023/02/12 03:14:17;;;;;;;81.18;51.92;;;0.40;99.90;;;;;;5015246;28;20036;-88
2023/02/12 03:17:03;;;;;;;85.68;50.67;;;0.40;99.90;;;;;;5033011;28;20464;-89
2023/02/12 03:19:35;;;;;;;86.80;51.78;;;0.30;99.90;;;;;;5032706;28;20041;-89
2023/02/12 03:22:05;;;;;;;88.78;53.47;;;0.30;99.90;;;;;;5033064;28;20021;-89
2023/02/12 03:24:34;;;;;;;87.47;54.45;;;0.70;99.90;;;;;;5033025;28;20021;-89
2023/02/12 03:27:12;;;;;;;87.70;53.33;;;0.30;99.90;;;;;;5033271;28;20056;-88
2023/02/12 03:29:38;;;;;;;84.72;52.20;;;0.90;99.90;;;;;;5033229;28;20025;-88
2023/02/12 03:32:04;;;;;;;82.75;49.15;;;0.90;99.90;;;;;;5042887;28;20048;-88
2023/02/12 03:34:49;;;;;;;78.40;48.15;;;0.10;99.90;;;;;;5052428;28;20017;-88
2023/02/12 03:37:25;;;;;;;77.47;47.42;;;-0.20;99.90;;;;;;5052514;28;20060;-88
2023/02/12 03:40:20;;;;;;;79.15;48.53;;;-0.40;99.90;;;;;;5034709;28;20401;-89
2023/02/12 03:43:23;;;;;;;81.30;49.55;;;-0.20;99.90;;;;;;5039340;28;20116;-88
2023/02/12 03:46:06;;;;;;;80.82;47.72;;;-0.10;99.90;;;;;;4974884;28;20037;-88
2023/02/12 03:48:37;;;;;;;83.50;51.60;;;-0.10;99.90;;;;;;4989004;28;20039;-88
2023/02/12 03:51:15;;;;;;;83.47;49.25;;;0.00;99.90;;;;;;4991351;28;20034;-89
2023/02/12 03:53:41;;;;;;;87.07;51.97;;;-0.10;99.90;;;;;;4991241;28;20057;-88
2023/02/12 03:56:16;;;;;;;82.13;50.33;;;-0.10;99.90;;;;;;4974015;28;20046;-89
2023/02/12 03:58:43;;;;;;;82.43;50.17;;;-0.10;99.90;;;;;;4971717;28;20034;-88
2023/02/12 04:01:08;;;;;;;83.72;51.05;;;0.00;99.90;;;;;;4957333;28;20444;-88
2023/02/12 04:03:35;;;;;;;85.63;51.35;;;-0.20;99.90;;;;;;4959073;28;20053;-88
2023/02/12 04:06:00;;;;;;;88.15;52.28;;;-0.20;99.90;;;;;;4975709;28;20018;-89
2023/02/12 04:08:27;;;;;;;85.82;52.78;;;0.00;99.90;;;;;;4959343;28;20521;-89
2023/02/12 04:11:23;;;;;;;83.35;51.42;;;0.10;99.90;;;;;;4975528;28;20431;-89
2023/02/12 04:14:17;;;;;;;85.60;51.92;;;0.10;99.90;;;;;;4991667;28;20038;-88
2023/02/12 04:16:46;;;;;;;86.88;52.45;;;0.20;99.90;;;;;;4975207;28;20157;-89
2023/02/12 04:19:19;;;;;;;84.20;51.95;;;0.20;99.90;;;;;;4975182;28;20500;-89
2023/02/12 04:22:04;;;;;;;82.45;49.95;;;0.10;99.90;;;;;;5002897;28;20041;-88
2023/02/12 04:24:54;;;;;;;88.18;53.05;;;0.10;99.90;;;;;;5016539;28;20105;-88
2023/02/12 04:27:33;;;;;;;84.95;51.53;;;0.00;99.90;;;;;;5016268;28;20030;-88
2023/02/12 04:30:10;;;;;;;84.47;52.08;;;0.00;99.90;;;;;;4998851;28;20026;-89
2023/02/12 04:32:45;;;;;;;83.30;50.70;;;0.00;99.90;;;;;;5044183;28;20053;-88
2023/02/12 04:35:19;;;;;;;87.78;52.92;;;-0.10;99.90;;;;;;5055926;28;20043;-89
2023/02/12 04:37:57;;;;;;;82.45;51.83;;;-0.10;99.90;;;;;;5055826;28;20029;-88
2023/02/12 04:40:23;;;;;;;86.03;51.38;;;-0.10;99.90;;;;;;5056350;28;20025;-89
2023/02/12 04:42:52;;;;;;;84.50;50.95;;;-0.20;99.90;;;;;;5056032;28;20142;-89
2023/02/12 04:45:29;;;;;;;84.35;51.50;;;-0.30;99.90;;;;;;5055819;28;20376;-89
2023/02/12 04:47:55;;;;;;;85.68;51.35;;;-0.10;99.90;;;;;;5037989;28;20082;-89
2023/02/12 04:50:21;;;;;;;84.45;52.55;;;0.50;99.90;;;;;;5037766;28;20013;-88
2023/02/12 04:52:47;;;;;;;86.78;51.72;;;0.10;99.90;;;;;;5055644;28;20117;-89
2023/02/12 04:55:13;;;;;;;85.10;51.75;;;0.10;99.90;;;;;;5027567;28;20072;-89
2023/02/12 04:57:39;;;;;;;87.53;52.80;;;0.00;99.90;;;;;;5035536;28;20041;-89
2023/02/12 05:00:06;;;;;;;88.97;53.28;;;0.60;99.90;;;;;;5035378;28;20509;-88
2023/02/12 05:02:33;;;;;;;88.15;53.05;;;0.00;99.90;;;;;;5035616;28;20029;-89
2023/02/12 05:04:58;;;;;;;85.68;51.33;;;0.40;99.90;;;;;;5035578;28;20390;-89
2023/02/12 05:07:24;;;;;;;86.10;51.90;;;0.20;99.90;;;;;;5035318;28;20037;-88
2023/02/12 05:09:50;;;;;;;85.75;51.65;;;0.10;99.90;;;;;;5017749;28;20033;-89
2023/02/12 05:12:15;;;;;;;85.32;51.80;;;0.00;99.90;;;;;;5034701;28;20546;-89
2023/02/12 05:14:41;;;;;;;83.35;51.28;;;-0.10;99.90;;;;;;5034767;28;20433;-88
2023/02/12 05:17:07;;;;;;;86.53;52.67;;;-0.10;99.90;;;;;;5017452;28;20104;-88
2023/02/12 05:19:32;;;;;;;86.70;50.33;;;-0.10;99.90;;;;;;5017470;28;20380;-89
2023/02/12 05:21:58;;;;;;;88.43;52.10;;;-0.20;99.90;;;;;;5035064;28;20029;-88
2023/02/12 05:24:24;;;;;;;85.70;52.28;;;-0.30;99.90;;;;;;5035052;28;20437;-89
2023/02/12 05:26:50;;;;;;;92.50;54.17;;;-0.30;99.90;;;;;;5034960;28;20040;-89
2023/02/12 05:29:16;;;;;;;92.10;54.83;;;-0.30;99.90;;;;;;5034717;28;20025;-88
2023/02/12 05:31:42;;;;;;;114.82;65.10;;;-0.10;99.90;;;;;;5041382;28;20565;-89
2023/02/12 05:34:10;;;;;;;114.07;63.55;;;-0.10;99.90;;;;;;5054818;28;20108;-89
2023/02/12 05:36:36;;;;;;;102.35;57.88;;;-0.10;99.90;;;;;;5036902;28;20025;-89
2023/02/12 05:39:02;;;;;;;103.78;58.95;;;-0.20;99.90;;;;;;5054529;28;20086;-89
2023/02/12 05:41:28;;;;;;;89.55;51.97;;;-0.30;99.90;;;;;;5054791;28;20035;-89
2023/02/12 05:43:54;;;;;;;89.32;52.88;;;-0.50;99.90;;;;;;5054441;28;20367;-89
2023/02/12 05:46:21;;;;;;;91.95;54.03;;;-0.40;99.90;;;;;;5054678;28;20046;-89
2023/02/12 05:48:47;;;;;;;87.75;51.88;;;-0.40;99.90;;;;;;5054542;28;20381;-89
2023/02/12 05:51:21;;;;;;;90.95;54.55;;;0.20;99.90;;;;;;5036843;28;20102;-89
2023/02/12 05:53:49;;;;;;;93.93;55.13;;;-0.50;99.90;;;;;;5037185;28;20032;-88
2023/02/12 05:56:16;;;;;;;90.32;53.13;;;-0.50;99.90;;;;;;5018411;28;20479;-88
2023/02/12 05:58:45;;;;;;;90.95;56.08;;;0.20;99.90;;;;;;5034626;28;20037;-88
2023/02/12 06:01:18;;;;;;;87.30;51.55;;;0.00;99.90;;;;;;5034409;28;20286;-88
2023/02/12 06:03:44;;;;;;;79.43;47.88;;;-0.50;99.90;;;;;;5016566;28;20421;-88
2023/02/12 06:06:10;;;;;;;81.40;49.00;;;-0.70;99.90;;;;;;5016506;28;20055;-89
2023/02/12 06:08:36;;;;;;;83.45;49.72;;;-0.80;99.90;;;;;;5016518;28;20034;-89
2023/02/12 06:11:04;;;;;;;82.00;50.28;;;-0.80;99.90;;;;;;5034000;28;20113;-88
2023/02/12 06:13:30;;;;;;;84.78;48.67;;;-0.80;99.90;;;;;;5033826;28;20025;-89
2023/02/12 06:15:56;;;;;;;82.30;49.67;;;-1.00;99.90;;;;;;5016272;28;20029;-89
2023/02/12 06:18:22;;;;;;;84.25;49.92;;;-1.10;99.90;;;;;;5016248;28;20040;-89
2023/02/12 06:20:48;;;;;;;81.75;49.67;;;-1.20;99.90;;;;;;5016279;28;20023;-88
2023/02/12 06:23:13;;;;;;;86.28;52.20;;;-1.10;99.90;;;;;;5033792;28;20072;-88
2023/02/12 06:25:39;;;;;;;87.78;52.33;;;-1.00;99.90;;;;;;5033135;28;20025;-89
2023/02/12 06:28:04;;;;;;;86.45;50.50;;;-0.90;99.90;;;;;;5033401;28;20478;-89
2023/02/12 06:30:32;;;;;;;85.95;51.33;;;-0.80;99.90;;;;;;5033585;28;20025;-89
2023/02/12 06:32:58;;;;;;;84.53;51.00;;;-0.80;99.90;;;;;;5033035;28;20040;-88
2023/02/12 06:35:23;;;;;;;83.50;51.60;;;-0.50;99.90;;;;;;5036009;28;20497;-89
2023/02/12 06:37:49;;;;;;;86.32;50.83;;;-0.90;99.90;;;;;;5053550;28;20040;-89
2023/02/12 06:40:15;;;;;;;85.45;51.03;;;-0.80;99.90;;;;;;5053556;28;20036;-89
2023/02/12 06:42:40;;;;;;;86.70;51.60;;;-0.70;99.90;;;;;;5053099;28;20032;-89
2023/02/12 06:45:06;;;;;;;92.90;53.58;;;-0.60;99.90;;;;;;5053597;28;20096;-88
2023/02/12 06:47:32;;;;;;;85.47;50.97;;;-0.50;99.90;;;;;;5053348;28;20021;-89
2023/02/12 06:49:58;;;;;;;90.28;52.00;;;0.20;99.90;;;;;;5053517;28;20025;-89
2023/02/12 06:52:23;;;;;;;89.70;52.35;;;-0.40;99.90;;;;;;5053338;28;20557;-88
2023/02/12 06:54:49;;;;;;;94.45;53.95;;;-0.40;99.90;;;;;;5028634;28;20032;-89
2023/02/12 06:57:14;;;;;;;87.63;51.60;;;-0.30;99.90;;;;;;5015177;28;20029;-89
2023/02/12 06:59:40;;;;;;;84.82;51.67;;;0.00;99.90;;;;;;5033305;28;20112;-88
2023/02/12 07:02:06;;;;;;;87.50;53.05;;;-0.40;99.90;;;;;;5033329;28;20100;-89
2023/02/12 07:04:31;;;;;;;92.75;52.72;;;-0.40;99.90;;;;;;5033467;28;20026;-88
2023/02/12 07:06:57;;;;;;;82.25;51.55;;;-0.30;99.90;;;;;;5033991;28;20085;-89
2023/02/12 07:09:22;;;;;;;86.50;51.00;;;-0.30;99.90;;;;;;5016333;28;20029;-88
2023/02/12 07:11:48;;;;;;;87.50;52.17;;;-0.20;99.90;;;;;;5015724;28;20029;-89
2023/02/12 07:14:15;;;;;;;83.97;51.75;;;0.00;99.90;;;;;;5015315;28;20033;-88
2023/02/12 07:16:41;;;;;;;87.90;52.00;;;0.00;99.90;;;;;;5033047;28;20079;-89
2023/02/12 07:19:07;;;;;;;84.60;50.92;;;0.40;99.90;;;;;;5033070;28;20041;-89
2023/02/12 07:21:32;;;;;;;86.30;52.03;;;0.10;99.90;;;;;;5033046;28;20572;-89
2023/02/12 07:23:58;;;;;;;84.82;52.70;;;0.10;99.90;;;;;;5033129;28;20487;-88
2023/02/12 07:26:24;;;;;;;86.70;52.88;;;0.20;99.90;;;;;;5014872;28;20398;-88
2023/02/12 07:28:50;;;;;;;82.45;51.67;;;0.30;99.90;;;;;;5032842;28;20131;-89
2023/02/12 07:31:18;;;;;;;84.80;52.00;;;0.40;99.90;;;;;;5035495;28;20490;-89
2023/02/12 07:33:45;;;;;;;82.40;51.10;;;0.40;99.90;;;;;;5052629;28;20044;-89
2023/02/12 07:36:17;;;;;;;80.82;49.88;;;0.60;99.90;;;;;;5052638;28;20026;-89
2023/02/12 07:38:43;;;;;;;82.60;50.85;;;0.40;99.90;;;;;;5034985;28;20067;-89
2023/02/12 07:41:11;;;;;;;82.15;49.53;;;0.30;99.90;;;;;;5052717;28;20035;-89
2023/02/12 07:43:39;;;;;;;83.68;50.60;;;0.30;99.90;;;;;;5052906;28;20025;-90
2023/02/12 07:46:13;;;;;;;82.95;50.03;;;0.40;99.90;;;;;;5052809;28;20104;-89
2023/02/12 07:48:39;;;;;;;84.22;49.08;;;0.60;99.90;;;;;;5052720;28;20024;-89
2023/02/12 07:51:10;;;;;;;84.18;49.00;;;1.00;99.90;;;;;;5052562;28;20464;-89
2023/02/12 07:53:36;;;;;;;79.13;47.47;;;0.50;99.90;;;;;;5034503;28;20112;-88
2023/02/12 07:56:08;;;;;;;78.45;47.78;;;0.40;99.90;;;;;;5035890;28;20175;-89
2023/02/12 07:58:34;;;;;;;75.13;46.70;;;0.50;99.90;;;;;;5014799;28;20049;-89
2023/02/12 08:01:09;;;;;;;79.10;47.30;;;1.10;99.90;;;;;;5032572;28;20018;-89
2023/02/12 08:03:35;;;;;;;76.05;47.47;;;0.90;99.90;;;;;;5032431;28;20033;-88
2023/02/12 08:06:07;;;;;;;75.40;46.85;;;1.50;99.90;;;;;;5014915;28;20091;-89
2023/02/12 08:08:32;;;;;;;76.72;48.40;;;1.10;99.90;;;;;;5032157;28;20034;-89
2023/02/12 08:10:58;;;;;;;76.75;48.85;;;1.40;99.90;;;;;;5015004;28;20079;-88
2023/02/12 08:13:23;;;;;;;75.07;47.17;;;2.90;99.90;;;;;;5015018;28;20030;-89
2023/02/12 08:15:49;;;;;;;73.75;46.20;;;4.90;99.90;;;;;;5014938;28;20021;-89
2023/02/12 08:18:15;;;;;;;73.90;46.13;;;5.40;99.90;;;;;;5032720;28;20065;-89
2023/02/12 08:20:40;;;;;;;74.25;47.20;;;5.30;99.90;;;;;;5033556;28;20049;-89
2023/02/12 08:23:06;;;;;;;73.20;45.22;;;7.10;99.90;;;;;;5032296;28;20402;-89
2023/02/12 08:25:31;;;;;;;73.55;45.20;;;7.80;99.90;;;;;;5032578;28;20103;-89
2023/02/12 08:27:57;;;;;;;70.53;44.13;;;8.20;99.90;;;;;;5014764;28;20029;-89
2023/02/12 08:30:22;;;;;;;74.53;44.85;;;8.80;99.90;;;;;;5032430;28;20021;-89
2023/02/12 08:32:48;;;;;;;65.97;44.13;;;10.10;99.90;;;;;;5030497;28;20044;-89
2023/02/12 08:35:14;;;;;;;70.38;45.13;;;10.90;99.90;;;;;;5034532;28;20420;-90
2023/02/12 08:37:40;;;;;;;64.65;44.42;;;11.80;99.90;;;;;;5033870;28;20078;-90
2023/02/12 08:40:06;;;;;;;66.35;44.67;;;11.80;99.90;;;;;;5052138;28;20033;-89
2023/02/12 08:42:31;;;;;;;67.05;45.83;;;12.30;99.90;;;;;;5052217;28;20025;-90
2023/02/12 08:44:57;;;;;;;67.85;45.47;;;12.50;99.90;;;;;;5052178;28;20035;-90
2023/02/12 08:47:23;;;;;;;68.00;46.08;;;13.20;99.90;;;;;;5052937;28;20025;-90
2023/02/12 08:49:48;;;;;;;62.25;45.97;;;13.00;99.90;;;;;;5055984;28;20025;-90
2023/02/12 08:52:14;;;;;;;83.07;49.08;;;13.80;99.90;;;;;;5055122;28;20139;-90
2023/02/12 08:54:39;;;;;;;74.40;48.60;;;13.80;99.90;;;;;;5032396;28;20037;-91
2023/02/12 08:57:05;;;;;;;73.63;49.60;;;14.70;99.90;;;;;;5035811;28;20577;-91
2023/02/12 08:59:31;;;;;;;70.70;49.95;;;15.00;99.90;;;;;;5035620;28;20045;-91
2023/02/12 09:01:56;;;;;;;76.93;52.78;;;16.20;99.90;;;;;;5018149;28;20104;-92
2023/02/12 09:04:24;;;;;;;73.53;52.28;;;17.70;99.90;;;;;;5035734;28;20029;-91
2023/02/12 09:06:51;;;;;;;80.95;55.92;;;17.60;99.90;;;;;;5017775;28;20478;-92
2023/02/12 09:09:18;;;;;;;84.03;54.47;;;16.80;99.90;;;;;;5036119;28;20056;-91
2023/02/12 09:11:44;;;;;;;73.32;53.67;;;17.20;99.90;;;;;;5035793;28;20029;-92
2023/02/12 09:14:13;;;;;;;72.95;53.53;;;17.30;99.90;;;;;;5035574;28;20033;-91
2023/02/12 09:16:39;;;;;;;71.07;54.35;;;18.30;99.90;;;;;;5035523;28;20067;-92
2023/02/12 09:19:06;;;;;;;79.35;55.08;;;18.60;99.90;;;;;;5035693;28;20040;-92
2023/02/12 09:21:32;;;;;;;68.03;54.17;;;19.00;99.90;;;;;;5017695;28;20017;-92
2023/02/12 09:23:59;;;;;;;71.72;56.60;;;19.10;99.90;;;;;;5035663;28;20041;-91
2023/02/12 09:26:25;;;;;;;73.85;56.78;;;19.10;99.90;;;;;;5017636;28;20359;-92
2023/02/12 09:28:52;;;;;;;69.70;54.30;;;19.70;99.90;;;;;;5035269;28;20083;-92
2023/02/12 09:31:25;;;;;;;69.18;55.13;;;20.40;99.90;;;;;;5039499;28;20041;-92
2023/02/12 09:33:52;;;;;;;74.05;56.30;;;19.70;99.90;;;;;;5058688;28;20408;-92
2023/02/12 09:36:18;;;;;;;70.22;57.35;;;20.00;99.90;;;;;;5057396;28;20028;-92
2023/02/12 09:38:44;;;;;;;72.65;57.05;;;20.50;99.90;;;;;;5055030;28;20088;-92
2023/02/12 09:41:28;;;;;;;78.28;58.72;;;21.00;99.90;;;;;;5037238;28;20021;-92
2023/02/12 09:44:22;;;;;;;74.05;58.15;;;21.90;99.90;;;;;;5037086;28;20037;-91
2023/02/12 09:46:58;;;;;;;71.30;58.17;;;21.70;99.90;;;;;;5054889;28;20032;-91
2023/02/12 09:49:43;;;;;;;73.55;57.22;;;22.30;99.90;;;;;;5054486;28;20063;-92
2023/02/12 09:52:17;;;;;;;72.38;58.47;;;22.00;99.90;;;;;;5054007;28;20037;-92
2023/02/12 09:54:43;;;;;;;71.55;59.83;;;22.50;99.90;;;;;;5031138;28;20017;-91
2023/02/12 09:57:16;;;;;;;71.65;60.05;;;22.60;99.90;;;;;;5016802;28;20052;-91
2023/02/12 09:59:55;;;;;;;70.03;58.42;;;21.80;99.90;;;;;;5034313;28;20410;-92
2023/02/12 10:02:22;;;;;;;67.60;57.42;;;21.20;99.90;;;;;;5034601;28;20378;-91
2023/02/12 10:04:50;;;;;;;68.85;59.75;;;22.00;99.90;;;;;;5034181;28;20052;-91
2023/02/12 10:07:25;;;;;;;70.22;58.58;;;22.60;99.90;;;;;;5034542;28;20028;-91
2023/02/12 10:09:56;;;;;;;70.10;59.33;;;22.20;99.90;;;;;;5034718;28;20036;-91
2023/02/12 10:12:22;;;;;;;67.50;59.72;;;22.90;99.90;;;;;;5034458;28;20036;-91
2023/02/12 10:14:48;;;;;;;71.43;61.22;;;22.90;99.90;;;;;;5034067;28;20025;-91
2023/02/12 10:17:32;;;;;;;67.97;57.88;;;22.70;99.90;;;;;;5034175;28;20029;-91
2023/02/12 10:20:17;;;;;;;69.85;60.65;;;22.10;99.90;;;;;;5033732;28;20092;-91
2023/02/12 10:22:48;;;;;;;66.18;57.90;;;23.50;99.90;;;;;;5033951;28;20455;-91
2023/02/12 10:25:24;;;;;;;62.75;55.83;;;23.40;99.90;;;;;;5033904;28;20104;-91
2023/02/12 10:27:54;;;;;;;60.38;53.85;;;23.70;99.90;;;;;;5033829;28;20036;-91
2023/02/12 10:30:38;;;;;;;62.22;55.13;;;23.50;99.90;;;;;;5033790;28;20405;-91
2023/02/12 10:33:09;;;;;;;65.95;57.97;;;23.80;99.90;;;;;;5033346;28;20037;-91
2023/02/12 10:35:38;;;;;;;60.45;53.88;;;23.20;99.90;;;;;;5033667;28;20021;-91
2023/02/12 10:38:13;;;;;;;62.20;55.40;;;23.00;99.90;;;;;;5033905;28;20114;-91
2023/02/12 10:40:43;;;;;;;66.97;59.25;;;22.60;99.90;;;;;;5033754;28;20029;-91
2023/02/12 10:43:13;;;;;;;64.00;55.55;;;22.60;99.90;;;;;;5033603;28;20025;-91
2023/02/12 10:45:41;;;;;;;64.40;57.40;;;22.70;99.90;;;;;;5016118;28;20036;-91
2023/02/12 10:48:23;;;;;;;61.35;54.42;;;23.50;99.90;;;;;;5033513;28;20029;-91
2023/02/12 10:51:07;;;;;;;64.10;54.47;;;24.70;99.90;;;;;;5033701;28;20034;-91
2023/02/12 10:53:38;;;;;;;60.85;52.90;;;23.90;99.90;;;;;;5033444;28;20451;-91
2023/02/12 10:56:24;;;;;;;57.72;51.45;;;23.80;99.90;;;;;;5033321;28;20018;-92
2023/02/12 10:59:00;;;;;;;58.20;52.10;;;24.70;99.90;;;;;;5033060;28;20033;-91
2023/02/12 11:01:27;;;;;;;54.92;48.88;;;24.40;99.90;;;;;;5033217;28;20045;-91
2023/02/12 11:03:58;;;;;;;56.50;50.20;;;24.90;99.90;;;;;;5015312;28;20112;-91
2023/02/12 11:06:29;;;;;;;58.05;50.85;;;25.50;99.90;;;;;;5015664;28;20036;-91
2023/02/12 11:08:56;;;;;;;57.38;51.10;;;25.80;99.90;;;;;;5033069;28;20075;-91
2023/02/12 11:11:25;;;;;;;57.60;51.05;;;25.20;99.90;;;;;;5032818;28;20029;-92
2023/02/12 11:13:58;;;;;;;55.78;49.97;;;25.30;99.90;;;;;;5033076;28;20022;-91
2023/02/12 11:16:31;;;;;;;57.97;51.78;;;25.40;99.90;;;;;;5032836;28;20030;-91
2023/02/12 11:19:06;;;;;;;59.88;53.47;;;25.80;99.90;;;;;;5032910;28;20478;-91
2023/02/12 11:21:33;;;;;;;56.80;50.92;;;25.50;99.90;;;;;;5015283;28;20075;-91
2023/02/12 11:24:36;;;;;;;58.42;52.20;;;26.40;99.90;;;;;;5015647;28;20068;-91
2023/02/12 11:27:23;;;;;;;60.13;53.85;;;26.40;99.90;;;;;;5032840;28;20112;-91
2023/02/12 11:30:23;;;;;;;57.03;51.03;;;26.30;99.90;;;;;;5032771;28;20017;-91
2023/02/12 11:32:50;;;;;;;58.17;51.92;;;26.40;99.90;;;;;;5048250;28;20049;-91
2023/02/12 11:35:22;;;;;;;59.38;52.90;;;26.30;99.90;;;;;;5034883;28;20031;-92
2023/02/12 11:37:50;;;;;;;56.55;50.60;;;26.80;99.90;;;;;;5052613;28;20463;-91
2023/02/12 11:40:32;;;;;;;57.05;51.30;;;26.50;99.90;;;;;;5052618;28;20473;-92
2023/02/12 11:43:04;;;;;;;55.75;49.97;;;24.40;99.90;;;;;;5052607;28;20086;-91
2023/02/12 11:45:46;;;;;;;57.28;51.28;;;26.40;99.90;;;;;;5052245;28;20493;-91
2023/02/12 11:48:32;;;;;;;57.38;51.53;;;26.70;99.90;;;;;;5052835;28;20025;-90
2023/02/12 11:51:01;;;;;;;54.92;49.30;;;27.20;99.90;;;;;;5034661;28;20088;-91
2023/02/12 11:53:34;;;;;;;57.60;51.53;;;26.70;99.90;;;;;;5052535;28;20029;-91
2023/02/12 11:56:07;;;;;;;55.58;49.92;;;25.60;99.90;;;;;;5036081;28;20490;-91
2023/02/12 11:58:33;;;;;;;54.90;49.28;;;26.70;99.90;;;;;;5015087;28;20037;-91
2023/02/12 12:01:27;;;;;;;54.92;49.13;;;26.80;99.90;;;;;;5014533;28;20026;-91
2023/02/12 12:03:59;;;;;;;53.50;48.10;;;26.70;99.90;;;;;;5014965;28;20167;-92
2023/02/12 12:06:47;;;;;;;52.03;46.65;;;26.80;99.90;;;;;;5014993;28;20090;-91
2023/02/12 12:09:38;;;;;;;51.63;46.25;;;26.50;99.90;;;;;;5032610;28;20119;-91
2023/02/12 12:12:14;;;;;;;50.97;45.67;;;26.20;99.90;;;;;;5032406;28;20406;-91
2023/02/12 12:20:58;;;;;;;50.97;45.63;;;25.20;99.90;;;;;;5032632;28;20129;-91
2023/02/12 12:23:34;;;;;;;52.03;46.65;;;25.90;99.90;;;;;;5034716;28;20021;-92
2023/02/12 12:26:21;;;;;;;49.65;44.70;;;25.80;99.90;;;;;;5036275;28;20136;-91
2023/02/12 12:29:42;;;;;;;51.67;46.38;;;26.20;99.90;;;;;;5035846;28;20040;-91
2023/02/12 12:32:13;;;;;;;49.10;43.92;;;24.90;99.90;;;;;;4879410;29;20064;-91
2023/02/12 12:34:39;;;;;;;49.95;44.83;;;24.90;99.90;;;;;;4880047;29;20569;-91
2023/02/12 12:37:41;;;;;;;51.15;45.88;;;24.90;99.90;;;;;;4880009;29;20045;-91
2023/02/12 12:40:38;;;;;;;51.85;46.45;;;26.00;99.90;;;;;;4879956;29;20037;-92
2023/02/12 12:43:33;;;;;;;49.70;44.58;;;25.60;99.90;;;;;;4872632;29;20529;-91
2023/02/12 12:46:10;;;;;;;51.85;46.60;;;25.90;99.90;;;;;;4864213;29;20028;-91
2023/02/12 12:49:12;;;;;;;50.75;45.55;;;25.30;99.90;;;;;;4879653;29;20040;-92
2023/02/12 12:51:59;;;;;;;48.38;43.17;;;25.10;99.90;;;;;;4879775;29;20029;-91
2023/02/12 12:54:44;;;;;;;48.13;43.15;;;24.70;99.90;;;;;;4879635;29;20041;-91
2023/02/12 12:57:38;;;;;;;47.17;42.13;;;25.00;99.90;;;;;;4879621;29;20041;-91
2023/02/12 13:00:27;;;;;;;46.25;41.33;;;25.00;99.90;;;;;;4878760;29;20049;-91
2023/02/12 13:03:04;;;;;;;46.00;41.20;;;24.60;99.90;;;;;;4879434;29;20693;-91